createdAt,value
2022-11-12T00:00:59.189Z,12.12
2022-11-12T00:03:26.738Z,12.10
2022-11-12T00:05:53.728Z,12.25
2022-11-12T00:08:21.035Z,12.39
2022-11-12T00:10:47.687Z,12.30
2022-11-12T00:13:14.878Z,12.27
2022-11-12T00:15:41.966Z,12.40
2022-11-12T00:18:08.880Z,12.33
2022-11-12T00:20:41.940Z,12.57
2022-11-12T00:23:08.699Z,12.43
2022-11-12T00:25:45.148Z,12.41
2022-11-12T00:28:12.005Z,12.59
2022-11-12T00:30:39.978Z,12.63
2022-11-12T00:33:07.197Z,12.79
2022-11-12T00:35:34.832Z,12.39
2022-11-12T00:38:02.129Z,12.59
2022-11-12T00:40:29.629Z,12.56
2022-11-12T00:42:56.608Z,12.51
2022-11-12T00:45:23.801Z,12.11
2022-11-12T00:47:50.480Z,12.14
2022-11-12T00:50:17.381Z,12.14
2022-11-12T00:52:44.288Z,12.04
2022-11-12T00:55:11.451Z,12.21
2022-11-12T00:57:38.264Z,12.16
2022-11-12T01:00:08.235Z,12.20
2022-11-12T01:02:41.636Z,11.95
2022-11-12T01:05:10.476Z,12.15
2022-11-12T01:07:37.091Z,12.25
2022-11-12T01:10:04.171Z,12.19
2022-11-12T01:12:31.674Z,12.40
2022-11-12T01:14:58.405Z,12.17
2022-11-12T01:17:24.990Z,12.29
2022-11-12T01:19:51.625Z,12.51
2022-11-12T01:22:18.199Z,12.17
2022-11-12T01:24:44.953Z,11.90
2022-11-12T01:27:11.527Z,11.78
2022-11-12T01:29:38.100Z,12.23
2022-11-12T01:32:04.915Z,12.05
2022-11-12T01:34:31.562Z,12.13
2022-11-12T01:36:58.513Z,12.42
2022-11-12T01:39:25.313Z,12.30
2022-11-12T01:41:52.151Z,12.19
2022-11-12T01:44:25.210Z,12.35
2022-11-12T01:46:55.878Z,11.98
2022-11-12T01:49:32.686Z,11.99
2022-11-12T01:52:10.737Z,11.95
2022-11-12T01:54:38.496Z,12.52
2022-11-12T01:57:05.773Z,12.27
2022-11-12T01:59:38.590Z,12.15
2022-11-12T02:02:05.580Z,11.90
2022-11-12T02:04:33.596Z,12.00
2022-11-12T02:07:00.666Z,11.93
2022-11-12T02:09:27.638Z,12.02
2022-11-12T02:11:54.395Z,12.07
2022-11-12T02:14:21.497Z,12.27
2022-11-12T02:16:49.290Z,12.16
2022-11-12T02:19:17.344Z,12.19
2022-11-12T02:21:44.703Z,12.24
2022-11-12T02:24:14.411Z,11.95
2022-11-12T02:26:45.657Z,12.11
2022-11-12T02:29:12.589Z,12.22
2022-11-12T02:31:39.280Z,12.01
2022-11-12T02:34:05.906Z,12.10
2022-11-12T02:36:32.498Z,12.38
2022-11-12T02:38:59.159Z,12.31
2022-11-12T02:41:26.166Z,12.39
2022-11-12T02:43:52.752Z,12.13
2022-11-12T02:46:19.639Z,11.98
2022-11-12T02:48:46.788Z,12.43
2022-11-12T02:51:13.698Z,12.34
2022-11-12T02:53:40.337Z,12.33
2022-11-12T02:56:07.284Z,12.35
2022-11-12T02:58:33.862Z,12.39
2022-11-12T03:01:00.707Z,12.24
2022-11-12T03:03:27.341Z,12.10
2022-11-12T03:06:02.792Z,11.72
2022-11-12T03:08:29.576Z,11.93
2022-11-12T03:10:56.354Z,12.01
2022-11-12T03:13:23.008Z,11.94
2022-11-12T03:15:49.633Z,12.05
2022-11-12T03:18:16.416Z,12.08
2022-11-12T03:20:43.037Z,11.95
2022-11-12T03:23:11.152Z,11.91
2022-11-12T03:25:37.963Z,11.42
2022-11-12T03:28:10.177Z,11.28
2022-11-12T03:30:39.181Z,11.36
2022-11-12T03:33:07.055Z,11.06
2022-11-12T03:35:34.629Z,11.19
2022-11-12T03:38:02.244Z,10.78
2022-11-12T03:40:30.396Z,10.93
2022-11-12T03:42:57.127Z,11.04
2022-11-12T03:45:25.899Z,11.56
2022-11-12T03:47:55.466Z,11.65
2022-11-12T03:50:25.458Z,11.56
2022-11-12T03:52:54.252Z,11.83
2022-11-12T03:55:22.996Z,12.04
2022-11-12T03:57:51.295Z,11.93
2022-11-12T04:00:19.163Z,12.12
2022-11-12T04:02:45.852Z,11.81
2022-11-12T04:05:31.602Z,11.71
2022-11-12T04:08:17.500Z,11.69
2022-11-12T04:10:44.237Z,11.18
2022-11-12T04:13:29.001Z,10.49
2022-11-12T04:16:20.011Z,10.34
2022-11-12T04:19:07.882Z,11.25
2022-11-12T04:21:56.276Z,11.51
2022-11-12T04:24:58.101Z,11.57
2022-11-12T04:27:33.301Z,11.58
2022-11-12T04:30:19.072Z,11.69
2022-11-12T04:32:47.607Z,11.50
2022-11-12T04:35:14.404Z,11.68
2022-11-12T04:37:47.113Z,11.73
2022-11-12T04:40:40.293Z,11.38
2022-11-12T04:43:28.596Z,11.39
2022-11-12T04:45:56.072Z,11.53
2022-11-12T04:48:24.600Z,11.47
2022-11-12T04:50:57.909Z,11.65
2022-11-12T04:53:25.118Z,11.56
2022-11-12T04:55:52.592Z,11.08
2022-11-12T04:58:19.719Z,11.34
2022-11-12T05:00:46.712Z,11.25
2022-11-12T05:03:13.391Z,11.24
2022-11-12T05:05:40.287Z,11.47
2022-11-12T05:08:06.985Z,11.35
2022-11-12T05:10:33.619Z,11.14
2022-11-12T05:13:00.648Z,10.98
2022-11-12T05:15:27.240Z,9.39
2022-11-12T05:17:53.921Z,9.59
2022-11-12T05:20:20.701Z,9.29
2022-11-12T05:23:04.399Z,8.86
2022-11-12T05:25:32.589Z,9.53
2022-11-12T05:27:59.353Z,8.83
2022-11-12T05:30:26.042Z,8.91
2022-11-12T05:32:52.702Z,9.23
2022-11-12T05:35:19.311Z,9.44
2022-11-12T05:37:45.958Z,9.25
2022-11-12T05:40:13.189Z,10.21
2022-11-12T05:42:39.771Z,10.40
2022-11-12T05:45:07.260Z,10.88
2022-11-12T05:47:33.933Z,11.28
2022-11-12T05:50:00.538Z,11.31
2022-11-12T05:52:27.109Z,11.11
2022-11-12T05:54:53.715Z,11.34
2022-11-12T05:57:20.385Z,11.09
2022-11-12T05:59:46.951Z,11.25
2022-11-12T06:02:13.661Z,11.22
2022-11-12T06:04:40.388Z,11.23
2022-11-12T06:07:07.114Z,11.15
2022-11-12T06:09:33.794Z,10.91
2022-11-12T06:12:00.464Z,11.43
2022-11-12T06:14:27.128Z,11.10
2022-11-12T06:16:53.693Z,11.18
2022-11-12T06:19:20.256Z,10.52
2022-11-12T06:21:46.879Z,10.96
2022-11-12T06:24:13.766Z,10.39
2022-11-12T06:26:40.404Z,10.46
2022-11-12T06:29:07.103Z,10.96
2022-11-12T06:31:33.727Z,10.67
2022-11-12T06:34:00.347Z,10.61
2022-11-12T06:36:27.010Z,10.87
2022-11-12T06:38:53.649Z,10.36
2022-11-12T06:41:20.389Z,10.90
2022-11-12T06:43:47.232Z,11.01
2022-11-12T06:46:15.909Z,11.25
2022-11-12T06:48:42.657Z,11.08
2022-11-12T06:51:20.226Z,11.17
2022-11-12T06:53:47.547Z,10.71
2022-11-12T06:56:14.279Z,10.99
2022-11-12T06:58:40.919Z,11.68
2022-11-12T07:01:15.797Z,11.63
2022-11-12T07:03:44.165Z,10.81
2022-11-12T07:06:20.454Z,11.14
2022-11-12T07:08:49.179Z,11.56
2022-11-12T07:11:17.671Z,11.46
2022-11-12T07:13:45.396Z,11.90
2022-11-12T07:16:22.730Z,11.26
2022-11-12T07:18:50.291Z,10.95
2022-11-12T07:21:20.858Z,11.16
2022-11-12T07:23:48.070Z,10.92
2022-11-12T07:26:21.078Z,11.64
2022-11-12T07:28:50.393Z,12.12
2022-11-12T07:31:18.408Z,12.30
2022-11-12T07:33:45.522Z,12.45
2022-11-12T07:36:15.169Z,11.87
2022-11-12T07:38:43.107Z,10.82
2022-11-12T07:41:21.466Z,11.22
2022-11-12T07:43:50.051Z,11.42
2022-11-12T07:46:27.918Z,11.65
2022-11-12T07:48:55.426Z,11.72
2022-11-12T07:51:26.935Z,11.77
2022-11-12T07:53:59.349Z,11.43
2022-11-12T07:56:27.920Z,12.19
2022-11-12T07:58:54.536Z,12.16
2022-11-12T08:01:28.461Z,11.72
2022-11-12T08:03:55.120Z,12.01
2022-11-12T08:06:21.939Z,12.11
2022-11-12T08:08:51.314Z,12.16
2022-11-12T08:11:17.866Z,11.93
2022-11-12T08:13:44.489Z,11.49
2022-11-12T08:16:11.085Z,11.66
2022-11-12T08:18:37.841Z,12.24
2022-11-12T08:21:06.884Z,12.01
2022-11-12T08:23:33.965Z,12.29
2022-11-12T08:26:02.212Z,11.93
2022-11-12T08:28:30.587Z,11.40
2022-11-12T08:30:58.550Z,11.73
2022-11-12T08:33:25.137Z,11.99
2022-11-12T08:35:51.697Z,11.88
2022-11-12T08:38:18.311Z,12.25
2022-11-12T08:40:44.908Z,10.60
2022-11-12T08:43:11.494Z,11.02
2022-11-12T08:45:41.183Z,11.71
2022-11-12T08:48:12.552Z,11.10
2022-11-12T08:50:39.517Z,11.32
2022-11-12T08:53:09.563Z,11.50
2022-11-12T08:55:36.946Z,11.75
2022-11-12T08:58:04.686Z,12.29
2022-11-12T09:00:39.790Z,12.04
2022-11-12T09:03:08.137Z,11.92
2022-11-12T09:05:35.981Z,12.00
2022-11-12T09:08:14.273Z,12.10
2022-11-12T09:10:40.934Z,11.94
2022-11-12T09:13:07.627Z,12.16
2022-11-12T09:15:38.622Z,11.89
2022-11-12T09:18:07.901Z,12.42
2022-11-12T09:20:34.521Z,12.72
2022-11-12T09:23:03.654Z,12.06
2022-11-12T09:25:30.638Z,12.61
2022-11-12T09:27:57.336Z,12.26
2022-11-12T09:30:24.012Z,12.65
2022-11-12T09:32:50.702Z,11.43
2022-11-12T09:35:17.329Z,11.95
2022-11-12T09:37:44.137Z,12.31
2022-11-12T09:40:18.053Z,12.67
2022-11-12T09:42:50.196Z,12.57
2022-11-12T09:45:50.356Z,12.66
2022-11-12T09:48:32.709Z,12.61
2022-11-12T09:51:05.300Z,12.28
2022-11-12T09:53:44.081Z,11.11
2022-11-12T09:56:13.845Z,12.35
2022-11-12T09:58:40.469Z,11.38
2022-11-12T10:01:24.697Z,11.95
2022-11-12T10:04:14.954Z,12.12
2022-11-12T10:07:06.182Z,12.44
2022-11-12T10:10:09.008Z,12.55
2022-11-12T10:12:38.479Z,12.52
2022-11-12T10:15:51.665Z,12.28
2022-11-12T10:18:36.219Z,12.27
2022-11-12T10:21:29.779Z,12.03
2022-11-12T10:23:57.215Z,11.50
2022-11-12T10:26:26.142Z,12.12
2022-11-12T10:29:36.329Z,11.62
2022-11-12T10:32:03.665Z,11.67
2022-11-12T10:34:34.160Z,12.47
2022-11-12T10:37:05.772Z,12.59
2022-11-12T10:39:41.424Z,11.25
2022-11-12T10:42:11.076Z,11.27
2022-11-12T10:44:39.311Z,11.30
2022-11-12T10:47:30.318Z,10.89
2022-11-12T10:50:30.354Z,11.47
2022-11-12T10:53:03.687Z,11.73
2022-11-12T10:55:31.765Z,11.39
2022-11-12T10:58:20.616Z,11.59
2022-11-12T11:00:56.840Z,11.67
2022-11-12T11:03:36.202Z,12.21
2022-11-12T11:06:17.875Z,12.17
2022-11-12T11:08:47.560Z,12.31
2022-11-12T11:11:16.923Z,12.33
2022-11-12T11:13:52.767Z,10.66
2022-11-12T11:16:27.847Z,11.76
2022-11-12T11:19:05.288Z,12.25
2022-11-12T11:21:55.059Z,11.49
2022-11-12T11:24:24.578Z,11.94
2022-11-12T11:27:00.703Z,12.22
2022-11-12T11:29:33.272Z,12.42
2022-11-12T11:32:09.666Z,12.58
2022-11-12T11:34:46.462Z,12.68
2022-11-12T11:37:26.151Z,10.83
2022-11-12T11:40:14.647Z,11.81
2022-11-12T11:42:58.249Z,11.52
2022-11-12T11:45:53.693Z,11.90
2022-11-12T11:48:43.566Z,10.95
2022-11-12T11:51:15.529Z,11.04
2022-11-12T11:53:45.117Z,10.90
2022-11-12T11:56:19.938Z,11.15
2022-11-12T11:59:43.778Z,11.31
2022-11-12T12:02:12.975Z,12.15
2022-11-12T12:05:09.322Z,12.48
2022-11-12T12:08:20.691Z,11.12
2022-11-12T12:11:09.303Z,11.39
2022-11-12T12:13:48.005Z,12.12
2022-11-12T12:16:31.137Z,11.66
2022-11-12T12:19:25.203Z,12.39
2022-11-12T12:21:53.048Z,12.44
2022-11-12T12:24:40.196Z,12.60
2022-11-12T12:27:14.702Z,12.82
2022-11-12T12:29:49.297Z,12.46
2022-11-12T12:32:23.944Z,12.54
2022-11-12T12:35:13.336Z,12.27
2022-11-12T12:37:45.624Z,11.60
2022-11-12T12:40:25.219Z,11.98
2022-11-12T12:43:01.910Z,11.51
2022-11-12T12:45:36.108Z,11.74
2022-11-12T12:48:07.289Z,12.38
2022-11-12T12:50:50.001Z,12.54
2022-11-12T12:53:22.852Z,12.57
2022-11-12T12:55:51.777Z,11.74
2022-11-12T12:58:29.063Z,11.24
2022-11-12T13:01:00.992Z,12.14
2022-11-12T13:03:42.709Z,12.14
2022-11-12T13:06:27.990Z,11.72
2022-11-12T13:09:20.656Z,11.90
2022-11-12T13:12:06.556Z,12.33
2022-11-12T13:14:35.929Z,12.18
2022-11-12T13:17:08.485Z,12.25
2022-11-12T13:19:37.099Z,11.99
2022-11-12T13:22:19.046Z,12.12
2022-11-12T13:25:05.725Z,12.20
2022-11-12T13:27:44.375Z,11.72
2022-11-12T13:30:13.970Z,11.77
2022-11-12T13:32:46.509Z,11.95
2022-11-12T13:35:31.198Z,10.76
2022-11-12T13:38:03.522Z,11.09
2022-11-12T13:40:30.081Z,10.79
2022-11-12T13:43:40.506Z,11.39
2022-11-12T13:46:07.236Z,10.89
2022-11-12T13:48:42.795Z,10.87
2022-11-12T13:51:34.070Z,11.43
2022-11-12T13:54:01.450Z,11.10
2022-11-12T13:56:33.704Z,11.27
2022-11-12T13:59:24.046Z,10.73
2022-11-12T14:01:50.935Z,11.04
2022-11-12T14:04:21.100Z,10.75
2022-11-12T14:06:50.453Z,10.99
2022-11-12T14:09:25.879Z,11.63
2022-11-12T14:12:00.292Z,11.68
2022-11-12T14:14:37.620Z,10.76
2022-11-12T14:17:29.107Z,11.41
2022-11-12T14:19:55.726Z,11.49
2022-11-12T14:22:23.003Z,10.46
2022-11-12T14:24:58.917Z,10.40
2022-11-12T14:27:28.533Z,11.14
2022-11-12T14:30:10.153Z,11.38
2022-11-12T14:32:39.501Z,11.54
2022-11-12T14:35:25.504Z,11.31
2022-11-12T14:37:55.965Z,10.81
2022-11-12T14:40:24.765Z,11.09
2022-11-12T14:42:52.310Z,11.10
2022-11-12T14:45:21.752Z,11.33
2022-11-12T14:47:51.112Z,10.90
2022-11-12T14:50:37.504Z,11.25
2022-11-12T14:53:44.867Z,11.09
2022-11-12T14:56:23.656Z,11.35
2022-11-12T14:58:52.503Z,11.43
2022-11-12T15:02:08.509Z,11.59
2022-11-12T15:04:15.731Z,10.92
2022-11-12T15:06:42.396Z,11.25
2022-11-12T15:09:09.046Z,11.51
2022-11-12T15:11:44.877Z,11.20
2022-11-12T15:14:24.792Z,11.46
2022-11-12T15:16:53.394Z,10.99
2022-11-12T15:19:27.973Z,10.88
2022-11-12T15:21:57.799Z,10.18
2022-11-12T15:24:29.475Z,10.41
2022-11-12T15:26:58.002Z,10.87
2022-11-12T15:29:31.945Z,11.06
2022-11-12T15:32:00.124Z,11.08
2022-11-12T15:34:34.309Z,11.66
2022-11-12T15:37:05.837Z,11.56
2022-11-12T15:39:39.038Z,11.60
2022-11-12T15:42:25.952Z,11.39
2022-11-12T15:44:58.574Z,11.61
2022-11-12T15:47:25.297Z,12.06
2022-11-12T15:49:54.335Z,11.90
2022-11-12T15:52:22.007Z,12.07
2022-11-12T15:54:49.077Z,12.13
2022-11-12T15:57:29.924Z,12.19
2022-11-12T16:00:10.150Z,12.02
2022-11-12T16:02:36.785Z,12.38
2022-11-12T16:05:03.437Z,12.14
2022-11-12T16:07:30.145Z,12.29
2022-11-12T16:09:56.775Z,11.88
2022-11-12T16:12:23.423Z,12.11
2022-11-12T16:14:50.047Z,12.01
2022-11-12T16:17:18.088Z,12.18
2022-11-12T16:19:44.676Z,12.12
2022-11-12T16:22:14.467Z,12.24
2022-11-12T16:24:42.379Z,12.54
2022-11-12T16:27:15.545Z,12.01
2022-11-12T16:29:42.109Z,12.16
2022-11-12T16:32:13.653Z,12.23
2022-11-12T16:34:40.242Z,11.82
2022-11-12T16:37:12.635Z,11.98
2022-11-12T16:39:39.680Z,11.35
2022-11-12T16:42:06.411Z,11.84
2022-11-12T16:44:33.027Z,12.07
2022-11-12T16:47:03.356Z,11.54
2022-11-12T16:49:33.295Z,11.97
2022-11-12T16:52:04.069Z,11.75
2022-11-12T16:54:30.845Z,11.64
2022-11-12T16:56:57.508Z,11.44
2022-11-12T16:59:24.216Z,11.26
2022-11-12T17:01:50.857Z,11.86
2022-11-12T17:04:17.511Z,11.38
2022-11-12T17:06:44.101Z,10.86
2022-11-12T17:09:12.331Z,11.02
2022-11-12T17:11:39.100Z,11.51
2022-11-12T17:14:06.302Z,10.94
2022-11-12T17:16:33.445Z,11.00
2022-11-12T17:19:02.194Z,11.12
2022-11-12T17:21:29.576Z,10.87
2022-11-12T17:23:59.428Z,11.39
2022-11-12T17:26:26.056Z,11.29
2022-11-12T17:28:59.214Z,11.66
2022-11-12T17:31:27.933Z,11.02
2022-11-12T17:33:54.623Z,11.06
2022-11-12T17:36:27.034Z,11.51
2022-11-12T17:38:55.025Z,11.20
2022-11-12T17:41:21.829Z,11.46
2022-11-12T17:43:48.642Z,10.47
2022-11-12T17:46:15.306Z,11.16
2022-11-12T17:48:42.018Z,11.48
2022-11-12T17:51:11.887Z,10.92
2022-11-12T17:53:39.411Z,11.10
2022-11-12T17:56:07.604Z,11.87
2022-11-12T17:58:34.567Z,11.00
2022-11-12T18:01:14.804Z,10.75
2022-11-12T18:03:43.774Z,11.33
2022-11-12T18:06:12.937Z,10.64
2022-11-12T18:08:40.647Z,10.71
2022-11-12T18:11:12.068Z,10.74
2022-11-12T18:13:38.860Z,10.59
2022-11-12T18:16:34.890Z,11.08
2022-11-12T18:19:10.902Z,10.58
2022-11-12T18:21:39.923Z,10.52
2022-11-12T18:24:08.946Z,10.65
2022-11-12T18:26:35.655Z,10.18
2022-11-12T18:29:02.248Z,10.17
2022-11-12T18:31:29.225Z,10.96
2022-11-12T18:33:56.180Z,10.57
2022-11-12T18:36:25.584Z,10.91
2022-11-12T18:38:53.200Z,10.92
2022-11-12T18:41:25.656Z,11.01
2022-11-12T18:43:56.233Z,10.66
2022-11-12T18:46:23.259Z,10.64
2022-11-12T18:48:50.057Z,10.71
2022-11-12T18:51:30.550Z,11.26
2022-11-12T18:53:57.268Z,10.97
2022-11-12T18:56:24.168Z,11.21
2022-11-12T18:58:51.266Z,10.97
2022-11-12T19:01:21.346Z,11.33
2022-11-12T19:04:15.263Z,10.40
2022-11-12T19:07:18.464Z,10.44
2022-11-12T19:09:45.365Z,10.32
2022-11-12T19:12:28.761Z,10.52
2022-11-12T19:14:59.493Z,11.15
2022-11-12T19:17:37.290Z,11.21
2022-11-12T19:20:04.412Z,10.66
2022-11-12T19:22:31.453Z,10.86
2022-11-12T19:24:58.018Z,11.13
2022-11-12T19:27:24.606Z,10.73
2022-11-12T19:29:51.219Z,10.26
2022-11-12T19:32:17.898Z,10.65
2022-11-12T19:34:44.540Z,10.59
2022-11-12T19:37:32.473Z,10.29
2022-11-12T19:39:57.739Z,10.56
2022-11-12T19:42:24.373Z,10.46
2022-11-12T19:44:51.062Z,10.90
2022-11-12T19:47:17.703Z,10.83
2022-11-12T19:49:44.342Z,11.01
2022-11-12T19:52:10.984Z,11.34
2022-11-12T19:54:37.636Z,11.16
2022-11-12T19:57:04.363Z,11.38
2022-11-12T19:59:30.922Z,11.57
2022-11-12T20:01:57.569Z,11.63
2022-11-12T20:04:24.537Z,11.94
2022-11-12T20:06:51.249Z,12.11
2022-11-12T20:09:18.189Z,11.67
2022-11-12T20:11:44.836Z,12.14
2022-11-12T20:14:11.691Z,11.75
2022-11-12T20:16:39.107Z,11.98
2022-11-12T20:19:06.422Z,12.13
2022-11-12T20:21:32.994Z,12.17
2022-11-12T20:24:01.156Z,12.26
2022-11-12T20:26:27.953Z,12.29
2022-11-12T20:28:54.637Z,12.10
2022-11-12T20:31:21.693Z,11.81
2022-11-12T20:33:50.088Z,11.87
2022-11-12T20:36:20.689Z,11.69
2022-11-12T20:38:49.945Z,12.18
2022-11-12T20:41:18.881Z,12.28
2022-11-12T20:43:48.272Z,12.48
2022-11-12T20:46:14.836Z,12.37
2022-11-12T20:48:43.424Z,12.24
2022-11-12T20:51:24.122Z,12.37
2022-11-12T20:53:58.776Z,11.67
2022-11-12T20:56:28.297Z,11.93
2022-11-12T20:58:55.008Z,12.20
2022-11-12T21:01:23.844Z,12.31
2022-11-12T21:03:50.882Z,12.42
2022-11-12T21:06:22.145Z,12.47
2022-11-12T21:08:49.180Z,12.47
2022-11-12T21:11:17.897Z,12.43
2022-11-12T21:13:44.603Z,12.65
2022-11-12T21:16:12.673Z,12.71
2022-11-12T21:19:00.363Z,12.62
2022-11-12T21:21:39.264Z,12.62
2022-11-12T21:24:11.636Z,12.52
2022-11-12T21:26:42.408Z,12.09
2022-11-12T21:29:19.189Z,11.69
2022-11-12T21:31:47.967Z,11.75
2022-11-12T21:34:22.853Z,11.53
2022-11-12T21:36:55.077Z,11.67
2022-11-12T21:39:21.693Z,11.37
2022-11-12T21:42:02.485Z,11.33
2022-11-12T21:44:46.712Z,11.06
2022-11-12T21:47:13.315Z,11.33
2022-11-12T21:49:45.870Z,11.21
2022-11-12T21:52:12.986Z,11.17
2022-11-12T21:54:39.821Z,11.08
2022-11-12T21:57:06.630Z,10.82
2022-11-12T21:59:33.427Z,10.85
2022-11-12T22:02:00.045Z,10.88
2022-11-12T22:04:26.670Z,11.22
2022-11-12T22:06:53.283Z,11.15
2022-11-12T22:09:19.892Z,11.18
2022-11-12T22:11:46.558Z,11.24
2022-11-12T22:14:13.132Z,11.27
2022-11-12T22:16:39.719Z,11.90
2022-11-12T22:19:06.442Z,11.48
2022-11-12T22:21:39.493Z,11.54
2022-11-12T22:24:07.372Z,11.59
2022-11-12T22:26:34.014Z,11.43
2022-11-12T22:29:01.540Z,11.39
2022-11-12T22:31:30.762Z,11.30
2022-11-12T22:33:59.700Z,11.06
2022-11-12T22:36:29.219Z,10.97
2022-11-12T22:38:56.682Z,10.61
2022-11-12T22:41:25.790Z,10.53
2022-11-12T22:43:55.642Z,10.57
2022-11-12T22:46:24.719Z,10.90
2022-11-12T22:48:52.082Z,11.18
2022-11-12T22:51:24.161Z,11.32
2022-11-12T22:53:55.645Z,11.37
2022-11-12T22:56:23.506Z,11.80
2022-11-12T22:58:51.312Z,11.41
2022-11-12T23:01:28.282Z,11.89
2022-11-12T23:03:57.081Z,12.13
2022-11-12T23:06:24.846Z,12.23
2022-11-12T23:08:53.204Z,11.97
2022-11-12T23:11:20.321Z,11.61
2022-11-12T23:13:48.147Z,12.15
2022-11-12T23:16:25.744Z,11.58
2022-11-12T23:18:57.707Z,11.42
2022-11-12T23:21:26.906Z,11.20
2022-11-12T23:23:55.785Z,11.16
2022-11-12T23:26:25.085Z,11.27
2022-11-12T23:28:51.776Z,10.94
2022-11-12T23:31:26.669Z,11.10
2022-11-12T23:33:57.165Z,10.65
2022-11-12T23:36:25.550Z,10.83
2022-11-12T23:38:52.857Z,10.97
2022-11-12T23:41:22.849Z,11.28
2022-11-12T23:43:50.208Z,11.54
2022-11-12T23:46:16.867Z,10.92
2022-11-12T23:48:43.983Z,11.33
2022-11-12T23:51:13.382Z,11.41
2022-11-12T23:53:40.647Z,11.84
2022-11-12T23:56:09.455Z,12.10
2022-11-12T23:58:37.628Z,11.95
